sensor_id;sensor_type;location;lat;lon;timestamp;temperature;humidity
30148;DHT22;16960;49.404;8.248;2024-03-07T00:00:21;20.90;38.90
30148;DHT22;16960;49.404;8.248;2024-03-07T00:02:49;20.90;38.90
30148;DHT22;16960;49.404;8.248;2024-03-07T00:05:18;20.90;39.00
30148;DHT22;16960;49.404;8.248;2024-03-07T00:07:46;20.90;39.00
30148;DHT22;16960;49.404;8.248;2024-03-07T00:10:13;20.90;39.00
30148;DHT22;16960;49.404;8.248;2024-03-07T00:12:41;20.90;39.00
30148;DHT22;16960;49.404;8.248;2024-03-07T00:15:09;20.90;39.00
30148;DHT22;16960;49.404;8.248;2024-03-07T00:17:36;20.90;39.10
30148;DHT22;16960;49.404;8.248;2024-03-07T00:20:04;20.90;39.10
30148;DHT22;16960;49.404;8.248;2024-03-07T00:22:41;20.80;39.00
30148;DHT22;16960;49.404;8.248;2024-03-07T00:25:08;20.80;39.10
30148;DHT22;16960;49.404;8.248;2024-03-07T00:27:37;20.80;39.10
30148;DHT22;16960;49.404;8.248;2024-03-07T00:30:05;20.80;39.10
30148;DHT22;16960;49.404;8.248;2024-03-07T00:32:34;20.80;39.80
30148;DHT22;16960;49.404;8.248;2024-03-07T00:35:05;20.80;39.20
30148;DHT22;16960;49.404;8.248;2024-03-07T00:37:34;20.80;39.20
30148;DHT22;16960;49.404;8.248;2024-03-07T00:40:03;20.80;39.20
30148;DHT22;16960;49.404;8.248;2024-03-07T00:42:30;20.80;39.20
30148;DHT22;16960;49.404;8.248;2024-03-07T00:44:57;20.80;39.20
30148;DHT22;16960;49.404;8.248;2024-03-07T00:47:24;20.80;39.20
30148;DHT22;16960;49.404;8.248;2024-03-07T00:49:50;20.80;39.20
30148;DHT22;16960;49.404;8.248;2024-03-07T00:52:17;20.80;39.20
30148;DHT22;16960;49.404;8.248;2024-03-07T00:54:44;20.80;39.20
30148;DHT22;16960;49.404;8.248;2024-03-07T00:57:13;20.80;39.20
30148;DHT22;16960;49.404;8.248;2024-03-07T00:59:40;20.80;39.20
30148;DHT22;16960;49.404;8.248;2024-03-07T01:02:07;20.80;39.30
30148;DHT22;16960;49.404;8.248;2024-03-07T01:04:34;20.80;39.40
30148;DHT22;16960;49.404;8.248;2024-03-07T01:07:01;20.80;39.40
30148;DHT22;16960;49.404;8.248;2024-03-07T01:09:28;20.70;39.40
30148;DHT22;16960;49.404;8.248;2024-03-07T01:11:56;20.70;39.40
30148;DHT22;16960;49.404;8.248;2024-03-07T01:14:26;20.70;39.40
30148;DHT22;16960;49.404;8.248;2024-03-07T01:16:53;20.70;39.40
30148;DHT22;16960;49.404;8.248;2024-03-07T01:19:20;20.70;39.40
30148;DHT22;16960;49.404;8.248;2024-03-07T01:21:47;20.70;39.40
30148;DHT22;16960;49.404;8.248;2024-03-07T01:24:14;20.70;39.30
30148;DHT22;16960;49.404;8.248;2024-03-07T01:26:43;20.70;39.30
30148;DHT22;16960;49.404;8.248;2024-03-07T01:29:10;20.70;39.30
30148;DHT22;16960;49.404;8.248;2024-03-07T01:31:38;20.70;39.30
30148;DHT22;16960;49.404;8.248;2024-03-07T01:34:05;20.60;39.20
30148;DHT22;16960;49.404;8.248;2024-03-07T01:36:32;20.60;39.20
30148;DHT22;16960;49.404;8.248;2024-03-07T01:38:59;20.70;39.30
30148;DHT22;16960;49.404;8.248;2024-03-07T01:41:26;20.60;39.30
30148;DHT22;16960;49.404;8.248;2024-03-07T01:43:53;20.60;39.20
30148;DHT22;16960;49.404;8.248;2024-03-07T01:46:21;20.60;39.20
30148;DHT22;16960;49.404;8.248;2024-03-07T01:48:49;20.70;39.30
30148;DHT22;16960;49.404;8.248;2024-03-07T01:51:16;20.60;39.20
30148;DHT22;16960;49.404;8.248;2024-03-07T01:53:43;20.60;39.20
30148;DHT22;16960;49.404;8.248;2024-03-07T01:56:11;20.60;39.20
30148;DHT22;16960;49.404;8.248;2024-03-07T01:58:39;20.60;39.20
30148;DHT22;16960;49.404;8.248;2024-03-07T02:01:07;20.60;39.20
30148;DHT22;16960;49.404;8.248;2024-03-07T02:03:34;20.60;39.20
30148;DHT22;16960;49.404;8.248;2024-03-07T02:06:03;20.60;39.20
30148;DHT22;16960;49.404;8.248;2024-03-07T02:08:31;20.50;39.20
30148;DHT22;16960;49.404;8.248;2024-03-07T02:10:58;20.60;39.20
30148;DHT22;16960;49.404;8.248;2024-03-07T02:13:25;20.50;39.30
30148;DHT22;16960;49.404;8.248;2024-03-07T02:15:52;20.50;39.30
30148;DHT22;16960;49.404;8.248;2024-03-07T02:18:20;20.50;39.30
30148;DHT22;16960;49.404;8.248;2024-03-07T02:20:48;20.50;39.20
30148;DHT22;16960;49.404;8.248;2024-03-07T02:23:15;20.50;39.20
30148;DHT22;16960;49.404;8.248;2024-03-07T02:25:42;20.50;39.20
30148;DHT22;16960;49.404;8.248;2024-03-07T02:28:10;20.50;39.30
30148;DHT22;16960;49.404;8.248;2024-03-07T02:30:38;20.50;39.30
30148;DHT22;16960;49.404;8.248;2024-03-07T02:33:05;20.50;39.30
30148;DHT22;16960;49.404;8.248;2024-03-07T02:35:33;20.50;39.30
30148;DHT22;16960;49.404;8.248;2024-03-07T02:38:03;20.50;39.30
30148;DHT22;16960;49.404;8.248;2024-03-07T02:40:31;20.40;39.20
30148;DHT22;16960;49.404;8.248;2024-03-07T02:42:58;20.50;39.30
30148;DHT22;16960;49.404;8.248;2024-03-07T02:45:25;20.40;39.20
30148;DHT22;16960;49.404;8.248;2024-03-07T02:47:52;20.40;39.80
30148;DHT22;16960;49.404;8.248;2024-03-07T02:50:19;20.40;39.20
30148;DHT22;16960;49.404;8.248;2024-03-07T02:52:47;20.40;39.20
30148;DHT22;16960;49.404;8.248;2024-03-07T02:55:16;20.40;39.20
30148;DHT22;16960;49.404;8.248;2024-03-07T02:57:44;20.40;39.20
30148;DHT22;16960;49.404;8.248;2024-03-07T03:00:12;20.40;39.20
30148;DHT22;16960;49.404;8.248;2024-03-07T03:02:52;20.40;39.20
30148;DHT22;16960;49.404;8.248;2024-03-07T03:05:19;20.40;39.20
30148;DHT22;16960;49.404;8.248;2024-03-07T03:07:46;20.40;39.20
30148;DHT22;16960;49.404;8.248;2024-03-07T03:10:21;20.40;39.20
30148;DHT22;16960;49.404;8.248;2024-03-07T03:12:52;20.40;39.20
30148;DHT22;16960;49.404;8.248;2024-03-07T03:15:20;20.40;39.20
30148;DHT22;16960;49.404;8.248;2024-03-07T03:17:47;20.40;39.70
30148;DHT22;16960;49.404;8.248;2024-03-07T03:20:14;20.40;39.10
30148;DHT22;16960;49.404;8.248;2024-03-07T03:22:51;20.40;39.10
30148;DHT22;16960;49.404;8.248;2024-03-07T03:25:20;20.40;39.10
30148;DHT22;16960;49.404;8.248;2024-03-07T03:27:48;20.40;39.70
30148;DHT22;16960;49.404;8.248;2024-03-07T03:30:16;20.40;39.20
30148;DHT22;16960;49.404;8.248;2024-03-07T03:32:45;20.40;39.10
30148;DHT22;16960;49.404;8.248;2024-03-07T03:35:13;20.30;39.10
30148;DHT22;16960;49.404;8.248;2024-03-07T03:37:40;20.40;39.10
30148;DHT22;16960;49.404;8.248;2024-03-07T03:40:09;20.40;39.20
30148;DHT22;16960;49.404;8.248;2024-03-07T03:42:38;20.30;39.10
30148;DHT22;16960;49.404;8.248;2024-03-07T03:45:06;20.40;39.20
30148;DHT22;16960;49.404;8.248;2024-03-07T03:47:34;20.30;39.20
30148;DHT22;16960;49.404;8.248;2024-03-07T03:50:02;20.30;39.20
30148;DHT22;16960;49.404;8.248;2024-03-07T03:52:29;20.30;39.20
30148;DHT22;16960;49.404;8.248;2024-03-07T03:54:57;20.30;39.20
30148;DHT22;16960;49.404;8.248;2024-03-07T03:57:24;20.30;39.20
30148;DHT22;16960;49.404;8.248;2024-03-07T03:59:52;20.30;39.20
30148;DHT22;16960;49.404;8.248;2024-03-07T04:02:20;20.30;39.20
30148;DHT22;16960;49.404;8.248;2024-03-07T04:04:47;20.30;39.20
30148;DHT22;16960;49.404;8.248;2024-03-07T04:07:15;20.30;39.20
30148;DHT22;16960;49.404;8.248;2024-03-07T04:09:42;20.30;39.20
30148;DHT22;16960;49.404;8.248;2024-03-07T04:12:09;20.30;39.20
30148;DHT22;16960;49.404;8.248;2024-03-07T04:14:37;20.30;39.20
30148;DHT22;16960;49.404;8.248;2024-03-07T04:17:05;20.30;39.20
30148;DHT22;16960;49.404;8.248;2024-03-07T04:19:34;20.30;39.20
30148;DHT22;16960;49.404;8.248;2024-03-07T04:22:01;20.30;39.20
30148;DHT22;16960;49.404;8.248;2024-03-07T04:24:30;20.20;39.10
30148;DHT22;16960;49.404;8.248;2024-03-07T04:26:58;20.20;39.20
30148;DHT22;16960;49.404;8.248;2024-03-07T04:29:26;20.20;39.10
30148;DHT22;16960;49.404;8.248;2024-03-07T04:31:53;20.20;39.10
30148;DHT22;16960;49.404;8.248;2024-03-07T04:34:21;20.20;39.10
30148;DHT22;16960;49.404;8.248;2024-03-07T04:36:48;20.20;39.10
30148;DHT22;16960;49.404;8.248;2024-03-07T04:39:15;20.20;39.10
30148;DHT22;16960;49.404;8.248;2024-03-07T04:41:51;20.20;39.10
30148;DHT22;16960;49.404;8.248;2024-03-07T04:44:19;20.10;39.10
30148;DHT22;16960;49.404;8.248;2024-03-07T04:46:48;20.10;39.10
30148;DHT22;16960;49.404;8.248;2024-03-07T04:49:16;20.10;39.10
30148;DHT22;16960;49.404;8.248;2024-03-07T04:51:44;20.20;39.10
30148;DHT22;16960;49.404;8.248;2024-03-07T04:54:11;20.10;39.10
30148;DHT22;16960;49.404;8.248;2024-03-07T04:56:38;20.10;39.10
30148;DHT22;16960;49.404;8.248;2024-03-07T04:59:06;20.10;39.10
30148;DHT22;16960;49.404;8.248;2024-03-07T05:01:33;20.10;39.10
30148;DHT22;16960;49.404;8.248;2024-03-07T05:04:00;20.10;39.10
30148;DHT22;16960;49.404;8.248;2024-03-07T05:06:28;20.10;39.10
30148;DHT22;16960;49.404;8.248;2024-03-07T05:09:00;20.10;39.10
30148;DHT22;16960;49.404;8.248;2024-03-07T05:11:28;20.10;39.10
30148;DHT22;16960;49.404;8.248;2024-03-07T05:13:55;20.10;39.10
30148;DHT22;16960;49.404;8.248;2024-03-07T05:16:23;20.10;39.10
30148;DHT22;16960;49.404;8.248;2024-03-07T05:18:50;20.10;39.10
30148;DHT22;16960;49.404;8.248;2024-03-07T05:21:17;20.10;39.10
30148;DHT22;16960;49.404;8.248;2024-03-07T05:24:01;20.10;39.10
30148;DHT22;16960;49.404;8.248;2024-03-07T05:26:29;20.10;39.10
30148;DHT22;16960;49.404;8.248;2024-03-07T05:29:00;20.10;39.60
30148;DHT22;16960;49.404;8.248;2024-03-07T05:31:28;20.00;39.00
30148;DHT22;16960;49.404;8.248;2024-03-07T05:33:55;20.00;39.00
30148;DHT22;16960;49.404;8.248;2024-03-07T05:36:22;20.00;39.00
30148;DHT22;16960;49.404;8.248;2024-03-07T05:38:49;20.10;39.10
30148;DHT22;16960;49.404;8.248;2024-03-07T05:41:18;20.00;39.00
30148;DHT22;16960;49.404;8.248;2024-03-07T05:43:45;20.00;39.00
30148;DHT22;16960;49.404;8.248;2024-03-07T05:46:12;20.00;39.00
30148;DHT22;16960;49.404;8.248;2024-03-07T05:48:39;20.00;39.00
30148;DHT22;16960;49.404;8.248;2024-03-07T05:51:06;20.10;39.10
30148;DHT22;16960;49.404;8.248;2024-03-07T05:53:33;20.00;38.90
30148;DHT22;16960;49.404;8.248;2024-03-07T05:56:00;20.00;38.90
30148;DHT22;16960;49.404;8.248;2024-03-07T05:58:29;20.00;38.90
30148;DHT22;16960;49.404;8.248;2024-03-07T06:00:56;20.00;38.90
30148;DHT22;16960;49.404;8.248;2024-03-07T06:03:22;20.00;38.90
30148;DHT22;16960;49.404;8.248;2024-03-07T06:05:51;20.00;38.90
30148;DHT22;16960;49.404;8.248;2024-03-07T06:08:20;20.00;39.00
30148;DHT22;16960;49.404;8.248;2024-03-07T06:10:47;20.00;39.10
30148;DHT22;16960;49.404;8.248;2024-03-07T06:13:16;20.00;39.20
30148;DHT22;16960;49.404;8.248;2024-03-07T06:15:46;20.00;39.30
30148;DHT22;16960;49.404;8.248;2024-03-07T06:18:13;20.10;39.40
30148;DHT22;16960;49.404;8.248;2024-03-07T06:20:40;20.10;39.40
30148;DHT22;16960;49.404;8.248;2024-03-07T06:23:07;20.10;39.40
30148;DHT22;16960;49.404;8.248;2024-03-07T06:25:37;20.10;39.40
30148;DHT22;16960;49.404;8.248;2024-03-07T06:28:13;20.20;39.40
30148;DHT22;16960;49.404;8.248;2024-03-07T06:30:41;20.30;39.40
30148;DHT22;16960;49.404;8.248;2024-03-07T06:33:09;20.30;39.40
30148;DHT22;16960;49.404;8.248;2024-03-07T06:35:37;20.30;39.40
30148;DHT22;16960;49.404;8.248;2024-03-07T06:38:04;20.40;39.30
30148;DHT22;16960;49.404;8.248;2024-03-07T06:40:31;20.40;39.30
30148;DHT22;16960;49.404;8.248;2024-03-07T06:42:58;20.40;39.30
30148;DHT22;16960;49.404;8.248;2024-03-07T06:45:25;20.50;39.40
30148;DHT22;16960;49.404;8.248;2024-03-07T06:47:52;20.50;39.30
30148;DHT22;16960;49.404;8.248;2024-03-07T06:50:21;20.50;39.30
30148;DHT22;16960;49.404;8.248;2024-03-07T06:52:48;20.60;39.20
30148;DHT22;16960;49.404;8.248;2024-03-07T06:55:15;20.60;39.10
30148;DHT22;16960;49.404;8.248;2024-03-07T06:57:44;20.60;39.10
30148;DHT22;16960;49.404;8.248;2024-03-07T07:00:11;20.70;39.10
30148;DHT22;16960;49.404;8.248;2024-03-07T07:02:40;20.70;39.00
30148;DHT22;16960;49.404;8.248;2024-03-07T07:05:08;20.80;39.00
30148;DHT22;16960;49.404;8.248;2024-03-07T07:07:39;20.80;39.00
30148;DHT22;16960;49.404;8.248;2024-03-07T07:10:08;20.90;39.10
30148;DHT22;16960;49.404;8.248;2024-03-07T07:12:41;20.90;38.90
30148;DHT22;16960;49.404;8.248;2024-03-07T07:15:09;20.90;38.90
30148;DHT22;16960;49.404;8.248;2024-03-07T07:17:36;21.00;39.00
30148;DHT22;16960;49.404;8.248;2024-03-07T07:20:03;21.00;38.90
30148;DHT22;16960;49.404;8.248;2024-03-07T07:22:35;21.10;38.90
30148;DHT22;16960;49.404;8.248;2024-03-07T07:25:04;21.10;38.80
30148;DHT22;16960;49.404;8.248;2024-03-07T07:27:31;21.20;38.70
30148;DHT22;16960;49.404;8.248;2024-03-07T07:29:58;21.20;38.60
30148;DHT22;16960;49.404;8.248;2024-03-07T07:32:25;21.30;38.50
30148;DHT22;16960;49.404;8.248;2024-03-07T07:34:53;21.30;38.40
30148;DHT22;16960;49.404;8.248;2024-03-07T07:37:20;21.40;38.30
30148;DHT22;16960;49.404;8.248;2024-03-07T07:39:48;21.40;38.30
30148;DHT22;16960;49.404;8.248;2024-03-07T07:42:17;21.50;38.30
30148;DHT22;16960;49.404;8.248;2024-03-07T07:44:43;21.50;38.30
30148;DHT22;16960;49.404;8.248;2024-03-07T07:47:10;21.50;38.30
30148;DHT22;16960;49.404;8.248;2024-03-07T07:49:38;21.50;38.10
30148;DHT22;16960;49.404;8.248;2024-03-07T07:52:07;21.60;38.00
30148;DHT22;16960;49.404;8.248;2024-03-07T07:54:34;21.60;38.00
30148;DHT22;16960;49.404;8.248;2024-03-07T07:57:01;21.60;37.90
30148;DHT22;16960;49.404;8.248;2024-03-07T07:59:29;21.60;37.90
30148;DHT22;16960;49.404;8.248;2024-03-07T08:01:58;21.60;37.80
30148;DHT22;16960;49.404;8.248;2024-03-07T08:04:25;21.70;37.80
30148;DHT22;16960;49.404;8.248;2024-03-07T08:06:52;21.70;37.70
30148;DHT22;16960;49.404;8.248;2024-03-07T08:09:19;21.70;37.70
30148;DHT22;16960;49.404;8.248;2024-03-07T08:11:47;21.70;37.70
30148;DHT22;16960;49.404;8.248;2024-03-07T08:14:15;21.70;37.60
30148;DHT22;16960;49.404;8.248;2024-03-07T08:16:48;21.70;37.50
30148;DHT22;16960;49.404;8.248;2024-03-07T08:19:16;21.70;37.50
30148;DHT22;16960;49.404;8.248;2024-03-07T08:21:42;21.80;37.60
30148;DHT22;16960;49.404;8.248;2024-03-07T08:24:09;21.80;37.60
30148;DHT22;16960;49.404;8.248;2024-03-07T08:26:37;21.80;37.70
30148;DHT22;16960;49.404;8.248;2024-03-07T08:29:09;21.80;37.70
30148;DHT22;16960;49.404;8.248;2024-03-07T08:31:37;21.80;37.60
30148;DHT22;16960;49.404;8.248;2024-03-07T08:34:06;21.90;37.60
30148;DHT22;16960;49.404;8.248;2024-03-07T08:36:32;21.90;37.60
30148;DHT22;16960;49.404;8.248;2024-03-07T08:39:00;21.90;37.50
30148;DHT22;16960;49.404;8.248;2024-03-07T08:41:27;22.00;37.50
30148;DHT22;16960;49.404;8.248;2024-03-07T08:43:57;22.00;37.40
30148;DHT22;16960;49.404;8.248;2024-03-07T08:46:24;22.10;37.40
30148;DHT22;16960;49.404;8.248;2024-03-07T08:48:53;22.10;37.40
30148;DHT22;16960;49.404;8.248;2024-03-07T08:51:21;22.10;37.30
30148;DHT22;16960;49.404;8.248;2024-03-07T08:53:48;22.20;37.30
30148;DHT22;16960;49.404;8.248;2024-03-07T08:56:16;22.20;37.20
30148;DHT22;16960;49.404;8.248;2024-03-07T08:58:43;22.20;37.20
30148;DHT22;16960;49.404;8.248;2024-03-07T09:01:10;22.30;37.20
30148;DHT22;16960;49.404;8.248;2024-03-07T09:03:38;22.30;37.20
30148;DHT22;16960;49.404;8.248;2024-03-07T09:06:05;22.30;37.10
30148;DHT22;16960;49.404;8.248;2024-03-07T09:08:33;22.40;37.10
30148;DHT22;16960;49.404;8.248;2024-03-07T09:11:00;22.30;37.10
30148;DHT22;16960;49.404;8.248;2024-03-07T09:13:27;22.40;37.00
30148;DHT22;16960;49.404;8.248;2024-03-07T09:15:54;22.40;37.00
30148;DHT22;16960;49.404;8.248;2024-03-07T09:18:21;22.40;37.00
30148;DHT22;16960;49.404;8.248;2024-03-07T09:20:49;22.40;37.00
30148;DHT22;16960;49.404;8.248;2024-03-07T09:23:16;22.40;36.90
30148;DHT22;16960;49.404;8.248;2024-03-07T09:25:44;22.40;36.90
30148;DHT22;16960;49.404;8.248;2024-03-07T09:28:11;22.40;36.90
30148;DHT22;16960;49.404;8.248;2024-03-07T09:30:38;22.50;37.00
30148;DHT22;16960;49.404;8.248;2024-03-07T09:33:05;22.50;37.00
30148;DHT22;16960;49.404;8.248;2024-03-07T09:35:36;22.50;37.60
30148;DHT22;16960;49.404;8.248;2024-03-07T09:38:03;22.40;36.90
30148;DHT22;16960;49.404;8.248;2024-03-07T09:40:32;22.50;37.00
30148;DHT22;16960;49.404;8.248;2024-03-07T09:43:01;22.40;36.80
30148;DHT22;16960;49.404;8.248;2024-03-07T09:45:29;22.40;36.80
30148;DHT22;16960;49.404;8.248;2024-03-07T09:47:57;22.40;36.80
30148;DHT22;16960;49.404;8.248;2024-03-07T09:50:26;22.50;37.00
30148;DHT22;16960;49.404;8.248;2024-03-07T09:52:56;22.50;37.00
30148;DHT22;16960;49.404;8.248;2024-03-07T09:55:25;22.50;37.00
30148;DHT22;16960;49.404;8.248;2024-03-07T09:57:53;22.40;36.90
30148;DHT22;16960;49.404;8.248;2024-03-07T10:00:22;22.50;37.00
30148;DHT22;16960;49.404;8.248;2024-03-07T10:02:54;22.40;36.90
30148;DHT22;16960;49.404;8.248;2024-03-07T10:05:23;22.50;36.90
30148;DHT22;16960;49.404;8.248;2024-03-07T10:07:51;22.50;37.00
30148;DHT22;16960;49.404;8.248;2024-03-07T10:10:19;22.50;36.90
30148;DHT22;16960;49.404;8.248;2024-03-07T10:12:47;22.60;36.80
30148;DHT22;16960;49.404;8.248;2024-03-07T10:15:15;22.60;36.80
30148;DHT22;16960;49.404;8.248;2024-03-07T10:17:44;22.60;36.70
30148;DHT22;16960;49.404;8.248;2024-03-07T10:20:12;22.70;36.70
30148;DHT22;16960;49.404;8.248;2024-03-07T10:22:40;22.80;36.70
30148;DHT22;16960;49.404;8.248;2024-03-07T10:25:08;22.90;36.70
30148;DHT22;16960;49.404;8.248;2024-03-07T10:27:36;23.00;36.60
30148;DHT22;16960;49.404;8.248;2024-03-07T10:30:05;23.00;36.50
30148;DHT22;16960;49.404;8.248;2024-03-07T10:32:33;23.10;36.50
30148;DHT22;16960;49.404;8.248;2024-03-07T10:35:03;23.10;36.50
30148;DHT22;16960;49.404;8.248;2024-03-07T10:37:34;23.10;36.40
30148;DHT22;16960;49.404;8.248;2024-03-07T10:40:03;23.20;36.30
30148;DHT22;16960;49.404;8.248;2024-03-07T10:42:43;23.10;36.40
30148;DHT22;16960;49.404;8.248;2024-03-07T10:45:12;23.10;36.30
30148;DHT22;16960;49.404;8.248;2024-03-07T10:47:43;23.20;36.30
30148;DHT22;16960;49.404;8.248;2024-03-07T10:50:21;23.20;36.30
30148;DHT22;16960;49.404;8.248;2024-03-07T10:52:57;23.20;36.30
30148;DHT22;16960;49.404;8.248;2024-03-07T10:55:33;23.10;36.30
30148;DHT22;16960;49.404;8.248;2024-03-07T10:58:08;23.10;36.30
30148;DHT22;16960;49.404;8.248;2024-03-07T11:00:38;23.10;36.30
30148;DHT22;16960;49.404;8.248;2024-03-07T11:03:11;23.10;36.30
30148;DHT22;16960;49.404;8.248;2024-03-07T11:05:41;23.10;36.40
30148;DHT22;16960;49.404;8.248;2024-03-07T11:08:10;23.10;36.30
30148;DHT22;16960;49.404;8.248;2024-03-07T11:10:38;23.20;36.30
30148;DHT22;16960;49.404;8.248;2024-03-07T11:13:06;23.10;36.40
30148;DHT22;16960;49.404;8.248;2024-03-07T11:15:35;23.10;36.40
30148;DHT22;16960;49.404;8.248;2024-03-07T11:18:03;23.10;36.40
30148;DHT22;16960;49.404;8.248;2024-03-07T11:20:35;23.10;36.40
30148;DHT22;16960;49.404;8.248;2024-03-07T11:23:24;23.10;36.40
30148;DHT22;16960;49.404;8.248;2024-03-07T11:25:54;23.10;36.40
30148;DHT22;16960;49.404;8.248;2024-03-07T11:28:28;23.10;36.30
30148;DHT22;16960;49.404;8.248;2024-03-07T11:31:08;23.10;36.30
30148;DHT22;16960;49.404;8.248;2024-03-07T11:33:37;23.20;36.20
30148;DHT22;16960;49.404;8.248;2024-03-07T11:36:06;23.20;36.20
30148;DHT22;16960;49.404;8.248;2024-03-07T11:38:35;23.20;36.20
30148;DHT22;16960;49.404;8.248;2024-03-07T11:41:04;23.30;36.20
30148;DHT22;16960;49.404;8.248;2024-03-07T11:43:31;23.30;36.20
30148;DHT22;16960;49.404;8.248;2024-03-07T11:45:59;23.30;36.20
30148;DHT22;16960;49.404;8.248;2024-03-07T11:48:26;23.30;36.10
30148;DHT22;16960;49.404;8.248;2024-03-07T11:50:53;23.40;36.10
30148;DHT22;16960;49.404;8.248;2024-03-07T11:53:21;23.40;36.00
30148;DHT22;16960;49.404;8.248;2024-03-07T11:55:50;23.40;36.10
30148;DHT22;16960;49.404;8.248;2024-03-07T11:58:20;23.40;36.10
30148;DHT22;16960;49.404;8.248;2024-03-07T12:00:49;23.40;36.00
30148;DHT22;16960;49.404;8.248;2024-03-07T12:03:18;23.50;36.10
30148;DHT22;16960;49.404;8.248;2024-03-07T12:05:47;23.50;36.10
30148;DHT22;16960;49.404;8.248;2024-03-07T12:08:14;23.50;36.00
30148;DHT22;16960;49.404;8.248;2024-03-07T12:10:42;23.50;36.00
30148;DHT22;16960;49.404;8.248;2024-03-07T12:13:12;23.60;36.00
30148;DHT22;16960;49.404;8.248;2024-03-07T12:15:42;23.60;35.90
30148;DHT22;16960;49.404;8.248;2024-03-07T12:18:09;23.60;35.90
30148;DHT22;16960;49.404;8.248;2024-03-07T12:20:40;23.60;35.80
30148;DHT22;16960;49.404;8.248;2024-03-07T12:23:08;23.60;35.80
30148;DHT22;16960;49.404;8.248;2024-03-07T12:25:37;23.60;35.90
30148;DHT22;16960;49.404;8.248;2024-03-07T12:28:06;23.60;35.90
30148;DHT22;16960;49.404;8.248;2024-03-07T12:30:48;23.70;35.90
30148;DHT22;16960;49.404;8.248;2024-03-07T12:33:17;23.60;35.90
30148;DHT22;16960;49.404;8.248;2024-03-07T12:35:46;23.70;36.00
30148;DHT22;16960;49.404;8.248;2024-03-07T12:38:13;23.70;36.10
30148;DHT22;16960;49.404;8.248;2024-03-07T12:40:42;23.70;35.90
30148;DHT22;16960;49.404;8.248;2024-03-07T12:43:16;23.70;36.00
30148;DHT22;16960;49.404;8.248;2024-03-07T12:45:47;23.70;36.00
30148;DHT22;16960;49.404;8.248;2024-03-07T12:48:14;23.70;36.00
30148;DHT22;16960;49.404;8.248;2024-03-07T12:50:44;23.70;36.00
30148;DHT22;16960;49.404;8.248;2024-03-07T12:53:12;23.70;36.00
30148;DHT22;16960;49.404;8.248;2024-03-07T12:55:39;23.70;36.00
30148;DHT22;16960;49.404;8.248;2024-03-07T12:58:08;23.70;36.00
30148;DHT22;16960;49.404;8.248;2024-03-07T13:00:37;23.70;36.00
30148;DHT22;16960;49.404;8.248;2024-03-07T13:03:06;23.70;36.00
30148;DHT22;16960;49.404;8.248;2024-03-07T13:05:33;23.70;36.00
30148;DHT22;16960;49.404;8.248;2024-03-07T13:08:00;23.70;36.00
30148;DHT22;16960;49.404;8.248;2024-03-07T13:10:27;23.80;36.00
30148;DHT22;16960;49.404;8.248;2024-03-07T13:12:54;23.70;36.60
30148;DHT22;16960;49.404;8.248;2024-03-07T13:15:20;23.70;36.10
30148;DHT22;16960;49.404;8.248;2024-03-07T13:17:50;23.70;36.00
30148;DHT22;16960;49.404;8.248;2024-03-07T13:20:20;23.70;36.10
30148;DHT22;16960;49.404;8.248;2024-03-07T13:22:52;23.70;36.10
30148;DHT22;16960;49.404;8.248;2024-03-07T13:25:22;23.70;36.00
30148;DHT22;16960;49.404;8.248;2024-03-07T13:28:00;23.70;36.00
30148;DHT22;16960;49.404;8.248;2024-03-07T13:30:28;23.70;36.00
30148;DHT22;16960;49.404;8.248;2024-03-07T13:32:55;23.70;36.00
30148;DHT22;16960;49.404;8.248;2024-03-07T13:35:25;23.70;36.10
30148;DHT22;16960;49.404;8.248;2024-03-07T13:37:53;23.70;36.10
30148;DHT22;16960;49.404;8.248;2024-03-07T13:40:21;23.70;36.00
30148;DHT22;16960;49.404;8.248;2024-03-07T13:42:53;23.70;36.00
30148;DHT22;16960;49.404;8.248;2024-03-07T13:45:21;23.80;36.00
30148;DHT22;16960;49.404;8.248;2024-03-07T13:47:49;23.80;35.90
30148;DHT22;16960;49.404;8.248;2024-03-07T13:50:18;23.80;35.90
30148;DHT22;16960;49.404;8.248;2024-03-07T13:52:50;23.80;35.90
30148;DHT22;16960;49.404;8.248;2024-03-07T13:55:53;23.80;35.90
30148;DHT22;16960;49.404;8.248;2024-03-07T13:58:36;23.80;35.90
30148;DHT22;16960;49.404;8.248;2024-03-07T14:01:21;23.80;35.80
30148;DHT22;16960;49.404;8.248;2024-03-07T14:06:51;23.90;35.90
30148;DHT22;16960;49.404;8.248;2024-03-07T14:09:41;23.90;35.80
30148;DHT22;16960;49.404;8.248;2024-03-07T14:12:32;23.90;35.80
30148;DHT22;16960;49.404;8.248;2024-03-07T14:21:29;23.90;35.80
30148;DHT22;16960;49.404;8.248;2024-03-07T14:24:16;23.90;35.80
30148;DHT22;16960;49.404;8.248;2024-03-07T14:27:15;23.90;35.80
30148;DHT22;16960;49.404;8.248;2024-03-07T14:29:48;23.90;35.80
30148;DHT22;16960;49.404;8.248;2024-03-07T14:32:18;23.90;35.80
30148;DHT22;16960;49.404;8.248;2024-03-07T14:34:57;23.80;35.70
30148;DHT22;16960;49.404;8.248;2024-03-07T14:37:27;23.90;35.80
30148;DHT22;16960;49.404;8.248;2024-03-07T14:40:07;23.80;35.70
30148;DHT22;16960;49.404;8.248;2024-03-07T14:42:39;23.80;35.80
30148;DHT22;16960;49.404;8.248;2024-03-07T14:45:12;23.80;35.70
30148;DHT22;16960;49.404;8.248;2024-03-07T14:47:39;23.80;35.70
30148;DHT22;16960;49.404;8.248;2024-03-07T14:50:08;23.80;35.80
30148;DHT22;16960;49.404;8.248;2024-03-07T14:52:36;23.80;36.40
30148;DHT22;16960;49.404;8.248;2024-03-07T14:55:07;23.70;35.80
30148;DHT22;16960;49.404;8.248;2024-03-07T14:57:35;23.70;35.80
30148;DHT22;16960;49.404;8.248;2024-03-07T15:00:04;23.70;35.90
30148;DHT22;16960;49.404;8.248;2024-03-07T15:02:43;23.70;35.90
30148;DHT22;16960;49.404;8.248;2024-03-07T15:05:10;23.70;35.90
30148;DHT22;16960;49.404;8.248;2024-03-07T15:07:37;23.60;35.80
30148;DHT22;16960;49.404;8.248;2024-03-07T15:10:06;23.60;35.80
30148;DHT22;16960;49.404;8.248;2024-03-07T15:12:37;23.60;35.90
30148;DHT22;16960;49.404;8.248;2024-03-07T15:15:06;23.60;35.80
30148;DHT22;16960;49.404;8.248;2024-03-07T15:17:40;23.60;35.90
30148;DHT22;16960;49.404;8.248;2024-03-07T15:20:08;23.60;35.90
30148;DHT22;16960;49.404;8.248;2024-03-07T15:22:41;23.60;35.80
30148;DHT22;16960;49.404;8.248;2024-03-07T15:25:12;23.60;35.80
30148;DHT22;16960;49.404;8.248;2024-03-07T15:27:39;23.50;35.90
30148;DHT22;16960;49.404;8.248;2024-03-07T15:30:08;23.50;35.90
30148;DHT22;16960;49.404;8.248;2024-03-07T15:32:40;23.50;35.90
30148;DHT22;16960;49.404;8.248;2024-03-07T15:35:08;23.50;35.90
30148;DHT22;16960;49.404;8.248;2024-03-07T15:37:39;23.50;35.90
30148;DHT22;16960;49.404;8.248;2024-03-07T15:40:08;23.50;35.90
30148;DHT22;16960;49.404;8.248;2024-03-07T15:42:38;23.50;36.00
30148;DHT22;16960;49.404;8.248;2024-03-07T15:45:08;23.50;36.00
30148;DHT22;16960;49.404;8.248;2024-03-07T15:47:45;23.40;35.90
30148;DHT22;16960;49.404;8.248;2024-03-07T15:50:13;23.50;35.90